Terminal Aerodrome Forecast
Issued by NWS Melbourne, FL

Home | Current Version | Previous Version | Text Only | Print | Product List | Glossary On
Versions: 1 2 3 4 5 6 7 8 9 10 11 12 13 14 15 16 17 18 19 20 21 22 23 24 25 26 27
000
FTUS42 KMLB 250543
TAFMCO
TAF
KMCO 250543Z 2506/2606 19010KT P6SM VCSH FEW015 SCT035 BKN050
     FM251400 24013G20KT P6SM SCT040 BKN060 OVC120
     FM251800 27014G21KT P6SM FEW050 SCT120
     FM260000 26007KT P6SM SKC=

USA.gov is the U.S. government's official web portal to all federal, state and local government web resources and services.